sensor_id;sensor_type;location;lat;lon;timestamp;P1;durP1;ratioP1;P2;durP2;ratioP2
73816;SDS011;62146;53.232;-1.304;2022-09-25T00:00:58;8.20;;;3.70;;
73816;SDS011;62146;53.232;-1.304;2022-09-25T00:03:25;8.15;;;4.07;;
73816;SDS011;62146;53.232;-1.304;2022-09-25T00:06:00;9.40;;;4.50;;
73816;SDS011;62146;53.232;-1.304;2022-09-25T00:08:32;10.10;;;4.50;;
73816;SDS011;62146;53.232;-1.304;2022-09-25T00:10:58;11.90;;;5.17;;
73816;SDS011;62146;53.232;-1.304;2022-09-25T00:13:25;11.02;;;5.05;;
73816;SDS011;62146;53.232;-1.304;2022-09-25T00:15:53;12.52;;;5.50;;
73816;SDS011;62146;53.232;-1.304;2022-09-25T00:18:23;12.13;;;5.18;;
73816;SDS011;62146;53.232;-1.304;2022-09-25T00:21:10;11.43;;;5.38;;
73816;SDS011;62146;53.232;-1.304;2022-09-25T00:23:39;10.80;;;5.00;;
73816;SDS011;62146;53.232;-1.304;2022-09-25T00:26:11;10.15;;;5.15;;
73816;SDS011;62146;53.232;-1.304;2022-09-25T00:28:39;12.27;;;5.30;;
73816;SDS011;62146;53.232;-1.304;2022-09-25T00:31:08;12.45;;;5.25;;
73816;SDS011;62146;53.232;-1.304;2022-09-25T00:33:35;10.90;;;4.65;;
73816;SDS011;62146;53.232;-1.304;2022-09-25T00:36:03;10.23;;;4.43;;
73816;SDS011;62146;53.232;-1.304;2022-09-25T00:38:33;13.00;;;5.00;;
73816;SDS011;62146;53.232;-1.304;2022-09-25T00:41:00;10.50;;;4.45;;
73816;SDS011;62146;53.232;-1.304;2022-09-25T00:43:35;10.02;;;4.43;;
73816;SDS011;62146;53.232;-1.304;2022-09-25T00:46:17;10.75;;;4.47;;
73816;SDS011;62146;53.232;-1.304;2022-09-25T00:51:21;8.38;;;4.10;;
73816;SDS011;62146;53.232;-1.304;2022-09-25T00:53:57;9.50;;;4.13;;
73816;SDS011;62146;53.232;-1.304;2022-09-25T00:56:27;7.70;;;3.80;;
73816;SDS011;62146;53.232;-1.304;2022-09-25T00:58:58;9.65;;;3.97;;
73816;SDS011;62146;53.232;-1.304;2022-09-25T01:01:25;9.67;;;3.80;;
73816;SDS011;62146;53.232;-1.304;2022-09-25T01:03:52;9.77;;;4.10;;
73816;SDS011;62146;53.232;-1.304;2022-09-25T01:06:21;9.55;;;3.58;;
73816;SDS011;62146;53.232;-1.304;2022-09-25T01:08:50;9.10;;;3.60;;
73816;SDS011;62146;53.232;-1.304;2022-09-25T01:11:17;8.90;;;3.40;;
73816;SDS011;62146;53.232;-1.304;2022-09-25T01:13:43;8.73;;;3.00;;
73816;SDS011;62146;53.232;-1.304;2022-09-25T01:16:30;10.75;;;3.38;;
73816;SDS011;62146;53.232;-1.304;2022-09-25T01:38:01;7.07;;;2.90;;
73816;SDS011;62146;53.232;-1.304;2022-09-25T01:41:07;6.13;;;2.70;;
73816;SDS011;62146;53.232;-1.304;2022-09-25T01:43:40;8.18;;;2.63;;
73816;SDS011;62146;53.232;-1.304;2022-09-25T01:46:15;6.25;;;2.60;;
73816;SDS011;62146;53.232;-1.304;2022-09-25T01:48:48;5.68;;;2.42;;
73816;SDS011;62146;53.232;-1.304;2022-09-25T01:51:36;6.53;;;2.60;;
73816;SDS011;62146;53.232;-1.304;2022-09-25T01:54:08;7.67;;;2.57;;
73816;SDS011;62146;53.232;-1.304;2022-09-25T01:56:45;6.00;;;2.40;;
73816;SDS011;62146;53.232;-1.304;2022-09-25T01:59:27;6.55;;;2.20;;
73816;SDS011;62146;53.232;-1.304;2022-09-25T02:02:01;5.57;;;2.28;;
73816;SDS011;62146;53.232;-1.304;2022-09-25T02:04:36;5.50;;;2.28;;
73816;SDS011;62146;53.232;-1.304;2022-09-25T02:07:06;5.80;;;2.37;;
73816;SDS011;62146;53.232;-1.304;2022-09-25T02:09:39;5.95;;;2.35;;
73816;SDS011;62146;53.232;-1.304;2022-09-25T02:12:16;6.03;;;2.20;;
73816;SDS011;62146;53.232;-1.304;2022-09-25T02:14:52;7.13;;;2.60;;
73816;SDS011;62146;53.232;-1.304;2022-09-25T02:17:21;5.60;;;2.35;;
73816;SDS011;62146;53.232;-1.304;2022-09-25T02:20:12;6.93;;;2.27;;
73816;SDS011;62146;53.232;-1.304;2022-09-25T02:23:00;5.10;;;1.90;;
73816;SDS011;62146;53.232;-1.304;2022-09-25T02:25:37;5.85;;;2.30;;
73816;SDS011;62146;53.232;-1.304;2022-09-25T02:28:08;5.07;;;1.90;;
73816;SDS011;62146;53.232;-1.304;2022-09-25T02:30:35;7.07;;;1.98;;
73816;SDS011;62146;53.232;-1.304;2022-09-25T02:33:01;5.80;;;2.00;;
73816;SDS011;62146;53.232;-1.304;2022-09-25T02:35:28;4.35;;;1.90;;
73816;SDS011;62146;53.232;-1.304;2022-09-25T02:37:55;7.82;;;2.08;;
73816;SDS011;62146;53.232;-1.304;2022-09-25T02:40:24;5.68;;;1.90;;
73816;SDS011;62146;53.232;-1.304;2022-09-25T02:43:10;4.80;;;1.75;;
73816;SDS011;62146;53.232;-1.304;2022-09-25T02:48:45;4.50;;;1.58;;
73816;SDS011;62146;53.232;-1.304;2022-09-25T02:51:23;6.22;;;1.83;;
73816;SDS011;62146;53.232;-1.304;2022-09-25T02:56:47;4.00;;;1.50;;
73816;SDS011;62146;53.232;-1.304;2022-09-25T02:59:33;5.40;;;1.70;;
73816;SDS011;62146;53.232;-1.304;2022-09-25T03:02:04;4.57;;;1.70;;
73816;SDS011;62146;53.232;-1.304;2022-09-25T03:04:31;4.88;;;1.88;;
73816;SDS011;62146;53.232;-1.304;2022-09-25T03:07:01;5.43;;;1.73;;
73816;SDS011;62146;53.232;-1.304;2022-09-25T03:09:28;4.90;;;1.52;;
73816;SDS011;62146;53.232;-1.304;2022-09-25T03:12:00;5.07;;;1.63;;
73816;SDS011;62146;53.232;-1.304;2022-09-25T03:14:28;4.18;;;1.50;;
73816;SDS011;62146;53.232;-1.304;2022-09-25T03:16:55;6.00;;;1.80;;
73816;SDS011;62146;53.232;-1.304;2022-09-25T03:19:25;4.80;;;1.67;;
73816;SDS011;62146;53.232;-1.304;2022-09-25T03:21:53;3.65;;;1.40;;
73816;SDS011;62146;53.232;-1.304;2022-09-25T03:24:20;4.10;;;1.40;;
73816;SDS011;62146;53.232;-1.304;2022-09-25T03:26:47;4.07;;;1.50;;
73816;SDS011;62146;53.232;-1.304;2022-09-25T03:29:14;2.70;;;1.25;;
73816;SDS011;62146;53.232;-1.304;2022-09-25T03:31:42;5.90;;;1.70;;
73816;SDS011;62146;53.232;-1.304;2022-09-25T03:34:11;5.68;;;1.30;;
73816;SDS011;62146;53.232;-1.304;2022-09-25T03:36:39;6.10;;;1.50;;
73816;SDS011;62146;53.232;-1.304;2022-09-25T03:39:06;2.92;;;1.20;;
73816;SDS011;62146;53.232;-1.304;2022-09-25T03:41:36;5.28;;;1.70;;
73816;SDS011;62146;53.232;-1.304;2022-09-25T03:44:02;4.40;;;1.38;;
73816;SDS011;62146;53.232;-1.304;2022-09-25T03:46:30;4.93;;;1.50;;
73816;SDS011;62146;53.232;-1.304;2022-09-25T03:48:59;5.57;;;1.30;;
73816;SDS011;62146;53.232;-1.304;2022-09-25T03:51:26;4.57;;;1.60;;
73816;SDS011;62146;53.232;-1.304;2022-09-25T03:53:54;3.95;;;1.50;;
73816;SDS011;62146;53.232;-1.304;2022-09-25T03:56:22;5.05;;;1.52;;
73816;SDS011;62146;53.232;-1.304;2022-09-25T03:58:51;4.18;;;1.50;;
73816;SDS011;62146;53.232;-1.304;2022-09-25T04:01:22;3.90;;;1.40;;
73816;SDS011;62146;53.232;-1.304;2022-09-25T04:03:50;5.40;;;1.70;;
73816;SDS011;62146;53.232;-1.304;2022-09-25T04:06:18;4.75;;;1.90;;
73816;SDS011;62146;53.232;-1.304;2022-09-25T04:08:47;5.13;;;1.73;;
73816;SDS011;62146;53.232;-1.304;2022-09-25T04:11:15;5.60;;;1.73;;
73816;SDS011;62146;53.232;-1.304;2022-09-25T04:13:43;4.87;;;1.80;;
73816;SDS011;62146;53.232;-1.304;2022-09-25T04:16:10;4.57;;;1.60;;
73816;SDS011;62146;53.232;-1.304;2022-09-25T04:18:37;4.60;;;1.52;;
73816;SDS011;62146;53.232;-1.304;2022-09-25T04:21:06;4.28;;;1.45;;
73816;SDS011;62146;53.232;-1.304;2022-09-25T04:23:34;5.15;;;1.50;;
73816;SDS011;62146;53.232;-1.304;2022-09-25T04:26:01;3.70;;;1.23;;
73816;SDS011;62146;53.232;-1.304;2022-09-25T04:28:28;4.97;;;1.40;;
73816;SDS011;62146;53.232;-1.304;2022-09-25T04:30:58;3.40;;;1.20;;
73816;SDS011;62146;53.232;-1.304;2022-09-25T04:33:25;4.88;;;1.42;;
73816;SDS011;62146;53.232;-1.304;2022-09-25T04:36:10;4.53;;;1.40;;
73816;SDS011;62146;53.232;-1.304;2022-09-25T04:38:37;4.83;;;1.37;;
73816;SDS011;62146;53.232;-1.304;2022-09-25T04:41:04;4.15;;;1.50;;
73816;SDS011;62146;53.232;-1.304;2022-09-25T04:43:31;7.40;;;1.35;;
73816;SDS011;62146;53.232;-1.304;2022-09-25T04:45:59;4.57;;;1.20;;
73816;SDS011;62146;53.232;-1.304;2022-09-25T04:48:27;3.88;;;1.10;;
73816;SDS011;62146;53.232;-1.304;2022-09-25T04:50:54;4.50;;;1.30;;
73816;SDS011;62146;53.232;-1.304;2022-09-25T04:53:21;4.32;;;1.42;;
73816;SDS011;62146;53.232;-1.304;2022-09-25T04:55:48;3.40;;;1.10;;
73816;SDS011;62146;53.232;-1.304;2022-09-25T04:58:14;4.70;;;1.13;;
73816;SDS011;62146;53.232;-1.304;2022-09-25T05:00:41;4.47;;;1.20;;
73816;SDS011;62146;53.232;-1.304;2022-09-25T05:03:07;5.07;;;1.53;;
73816;SDS011;62146;53.232;-1.304;2022-09-25T05:05:34;3.65;;;1.08;;
73816;SDS011;62146;53.232;-1.304;2022-09-25T05:08:01;4.80;;;1.20;;
73816;SDS011;62146;53.232;-1.304;2022-09-25T05:10:30;3.40;;;1.20;;
73816;SDS011;62146;53.232;-1.304;2022-09-25T05:13:00;5.07;;;1.40;;
73816;SDS011;62146;53.232;-1.304;2022-09-25T05:15:29;4.63;;;1.40;;
73816;SDS011;62146;53.232;-1.304;2022-09-25T05:17:58;4.13;;;1.30;;
73816;SDS011;62146;53.232;-1.304;2022-09-25T05:20:25;4.03;;;1.52;;
73816;SDS011;62146;53.232;-1.304;2022-09-25T05:22:58;4.20;;;1.40;;
73816;SDS011;62146;53.232;-1.304;2022-09-25T05:25:25;5.80;;;1.70;;
73816;SDS011;62146;53.232;-1.304;2022-09-25T05:27:52;4.13;;;1.50;;
73816;SDS011;62146;53.232;-1.304;2022-09-25T05:30:21;4.97;;;1.67;;
73816;SDS011;62146;53.232;-1.304;2022-09-25T05:32:48;3.80;;;1.20;;
73816;SDS011;62146;53.232;-1.304;2022-09-25T05:35:20;3.92;;;1.15;;
73816;SDS011;62146;53.232;-1.304;2022-09-25T05:37:49;4.30;;;1.33;;
73816;SDS011;62146;53.232;-1.304;2022-09-25T05:40:17;4.00;;;1.30;;
73816;SDS011;62146;53.232;-1.304;2022-09-25T05:42:46;3.15;;;1.20;;
73816;SDS011;62146;53.232;-1.304;2022-09-25T05:45:14;3.97;;;1.10;;
73816;SDS011;62146;53.232;-1.304;2022-09-25T05:47:41;4.40;;;1.23;;
73816;SDS011;62146;53.232;-1.304;2022-09-25T05:50:09;4.03;;;0.95;;
73816;SDS011;62146;53.232;-1.304;2022-09-25T05:52:38;3.27;;;1.03;;
73816;SDS011;62146;53.232;-1.304;2022-09-25T05:55:06;2.85;;;0.85;;
73816;SDS011;62146;53.232;-1.304;2022-09-25T05:57:34;3.28;;;1.05;;
73816;SDS011;62146;53.232;-1.304;2022-09-25T06:00:03;4.25;;;1.20;;
73816;SDS011;62146;53.232;-1.304;2022-09-25T06:02:31;3.15;;;1.10;;
73816;SDS011;62146;53.232;-1.304;2022-09-25T06:04:58;2.97;;;1.13;;
73816;SDS011;62146;53.232;-1.304;2022-09-25T06:07:24;4.47;;;1.25;;
73816;SDS011;62146;53.232;-1.304;2022-09-25T06:09:51;3.42;;;1.00;;
73816;SDS011;62146;53.232;-1.304;2022-09-25T06:12:17;3.83;;;1.15;;
73816;SDS011;62146;53.232;-1.304;2022-09-25T06:14:44;3.92;;;1.10;;
73816;SDS011;62146;53.232;-1.304;2022-09-25T06:17:11;5.03;;;1.10;;
73816;SDS011;62146;53.232;-1.304;2022-09-25T06:19:39;3.75;;;1.10;;
73816;SDS011;62146;53.232;-1.304;2022-09-25T06:22:05;3.58;;;1.25;;
73816;SDS011;62146;53.232;-1.304;2022-09-25T06:24:32;3.45;;;1.20;;
73816;SDS011;62146;53.232;-1.304;2022-09-25T06:26:58;4.70;;;1.17;;
73816;SDS011;62146;53.232;-1.304;2022-09-25T06:29:25;3.23;;;1.00;;
73816;SDS011;62146;53.232;-1.304;2022-09-25T06:31:51;4.32;;;1.20;;
73816;SDS011;62146;53.232;-1.304;2022-09-25T06:34:18;2.90;;;0.98;;
73816;SDS011;62146;53.232;-1.304;2022-09-25T06:36:45;4.90;;;1.10;;
73816;SDS011;62146;53.232;-1.304;2022-09-25T06:39:11;4.00;;;1.25;;
73816;SDS011;62146;53.232;-1.304;2022-09-25T06:41:38;4.93;;;1.17;;
73816;SDS011;62146;53.232;-1.304;2022-09-25T06:44:05;4.05;;;1.10;;
73816;SDS011;62146;53.232;-1.304;2022-09-25T06:46:37;4.20;;;1.10;;
73816;SDS011;62146;53.232;-1.304;2022-09-25T06:49:04;3.38;;;1.20;;
73816;SDS011;62146;53.232;-1.304;2022-09-25T06:51:33;4.70;;;1.30;;
73816;SDS011;62146;53.232;-1.304;2022-09-25T06:54:00;4.57;;;1.30;;
73816;SDS011;62146;53.232;-1.304;2022-09-25T06:56:27;4.43;;;1.00;;
73816;SDS011;62146;53.232;-1.304;2022-09-25T06:58:53;3.70;;;1.02;;
73816;SDS011;62146;53.232;-1.304;2022-09-25T07:01:20;3.55;;;1.05;;
73816;SDS011;62146;53.232;-1.304;2022-09-25T07:03:47;3.40;;;1.10;;
73816;SDS011;62146;53.232;-1.304;2022-09-25T07:06:16;3.20;;;1.00;;
73816;SDS011;62146;53.232;-1.304;2022-09-25T07:08:44;4.10;;;1.02;;
73816;SDS011;62146;53.232;-1.304;2022-09-25T07:11:14;4.47;;;1.30;;
73816;SDS011;62146;53.232;-1.304;2022-09-25T07:13:44;4.03;;;1.20;;
73816;SDS011;62146;53.232;-1.304;2022-09-25T07:16:12;2.58;;;1.00;;
73816;SDS011;62146;53.232;-1.304;2022-09-25T07:18:41;3.67;;;1.10;;
73816;SDS011;62146;53.232;-1.304;2022-09-25T07:21:09;3.38;;;0.88;;
73816;SDS011;62146;53.232;-1.304;2022-09-25T07:23:41;3.15;;;0.95;;
73816;SDS011;62146;53.232;-1.304;2022-09-25T07:26:11;3.53;;;0.90;;
73816;SDS011;62146;53.232;-1.304;2022-09-25T07:28:40;4.75;;;1.27;;
73816;SDS011;62146;53.232;-1.304;2022-09-25T07:31:12;3.43;;;1.07;;
73816;SDS011;62146;53.232;-1.304;2022-09-25T07:33:43;3.13;;;1.00;;
73816;SDS011;62146;53.232;-1.304;2022-09-25T07:36:10;5.00;;;1.30;;
73816;SDS011;62146;53.232;-1.304;2022-09-25T07:38:38;4.18;;;1.00;;
73816;SDS011;62146;53.232;-1.304;2022-09-25T07:41:05;2.80;;;0.90;;
73816;SDS011;62146;53.232;-1.304;2022-09-25T07:43:33;3.10;;;1.00;;
73816;SDS011;62146;53.232;-1.304;2022-09-25T07:46:00;2.65;;;0.90;;
73816;SDS011;62146;53.232;-1.304;2022-09-25T07:48:26;3.75;;;0.90;;
73816;SDS011;62146;53.232;-1.304;2022-09-25T07:51:02;3.58;;;1.10;;
73816;SDS011;62146;53.232;-1.304;2022-09-25T07:53:30;4.00;;;1.23;;
73816;SDS011;62146;53.232;-1.304;2022-09-25T07:55:57;3.30;;;1.00;;
73816;SDS011;62146;53.232;-1.304;2022-09-25T07:58:31;2.90;;;1.20;;
73816;SDS011;62146;53.232;-1.304;2022-09-25T08:00:58;3.33;;;1.08;;
73816;SDS011;62146;53.232;-1.304;2022-09-25T08:03:26;3.67;;;1.13;;
73816;SDS011;62146;53.232;-1.304;2022-09-25T08:06:01;3.05;;;1.20;;
73816;SDS011;62146;53.232;-1.304;2022-09-25T08:08:31;4.10;;;1.00;;
73816;SDS011;62146;53.232;-1.304;2022-09-25T08:10:59;3.47;;;1.00;;
73816;SDS011;62146;53.232;-1.304;2022-09-25T08:13:32;4.82;;;1.10;;
73816;SDS011;62146;53.232;-1.304;2022-09-25T08:16:02;3.08;;;1.00;;
73816;SDS011;62146;53.232;-1.304;2022-09-25T08:18:30;4.40;;;1.55;;
73816;SDS011;62146;53.232;-1.304;2022-09-25T08:21:03;3.37;;;1.00;;
73816;SDS011;62146;53.232;-1.304;2022-09-25T08:23:30;3.58;;;1.20;;
73816;SDS011;62146;53.232;-1.304;2022-09-25T08:25:57;11.48;;;1.50;;
73816;SDS011;62146;53.232;-1.304;2022-09-25T08:28:25;4.20;;;1.30;;
73816;SDS011;62146;53.232;-1.304;2022-09-25T08:30:51;8.80;;;1.40;;
73816;SDS011;62146;53.232;-1.304;2022-09-25T08:33:19;6.23;;;1.37;;
73816;SDS011;62146;53.232;-1.304;2022-09-25T08:35:55;6.25;;;1.40;;
73816;SDS011;62146;53.232;-1.304;2022-09-25T08:38:26;7.05;;;1.75;;
73816;SDS011;62146;53.232;-1.304;2022-09-25T08:40:56;5.70;;;1.50;;
73816;SDS011;62146;53.232;-1.304;2022-09-25T08:43:30;7.03;;;1.92;;
73816;SDS011;62146;53.232;-1.304;2022-09-25T08:46:00;5.80;;;1.83;;
73816;SDS011;62146;53.232;-1.304;2022-09-25T08:48:55;6.57;;;2.00;;
73816;SDS011;62146;53.232;-1.304;2022-09-25T08:51:35;6.00;;;1.70;;
73816;SDS011;62146;53.232;-1.304;2022-09-25T08:54:06;6.70;;;1.95;;
73816;SDS011;62146;53.232;-1.304;2022-09-25T08:56:40;5.93;;;2.10;;
73816;SDS011;62146;53.232;-1.304;2022-09-25T09:01:41;5.97;;;1.98;;
73816;SDS011;62146;53.232;-1.304;2022-09-25T09:04:17;5.55;;;2.00;;
73816;SDS011;62146;53.232;-1.304;2022-09-25T09:06:51;6.28;;;2.25;;
73816;SDS011;62146;53.232;-1.304;2022-09-25T09:09:49;7.18;;;2.13;;
73816;SDS011;62146;53.232;-1.304;2022-09-25T09:12:24;4.97;;;2.20;;
73816;SDS011;62146;53.232;-1.304;2022-09-25T09:18:01;7.47;;;2.47;;
73816;SDS011;62146;53.232;-1.304;2022-09-25T09:20:42;6.68;;;2.53;;
73816;SDS011;62146;53.232;-1.304;2022-09-25T09:23:16;5.18;;;2.47;;
73816;SDS011;62146;53.232;-1.304;2022-09-25T09:29:38;7.93;;;4.15;;
73816;SDS011;62146;53.232;-1.304;2022-09-25T09:37:47;7.82;;;3.97;;
73816;SDS011;62146;53.232;-1.304;2022-09-25T09:49:16;6.80;;;2.88;;
73816;SDS011;62146;53.232;-1.304;2022-09-25T09:57:04;6.38;;;2.35;;
73816;SDS011;62146;53.232;-1.304;2022-09-25T09:59:51;5.22;;;2.42;;
73816;SDS011;62146;53.232;-1.304;2022-09-25T10:02:42;4.60;;;2.00;;
73816;SDS011;62146;53.232;-1.304;2022-09-25T10:05:24;4.35;;;1.80;;
73816;SDS011;62146;53.232;-1.304;2022-09-25T10:08:04;4.10;;;1.60;;
73816;SDS011;62146;53.232;-1.304;2022-09-25T10:10:40;3.25;;;1.30;;
73816;SDS011;62146;53.232;-1.304;2022-09-25T10:16:03;4.88;;;1.58;;
73816;SDS011;62146;53.232;-1.304;2022-09-25T10:18:38;3.65;;;1.25;;
73816;SDS011;62146;53.232;-1.304;2022-09-25T10:21:10;4.00;;;1.20;;
73816;SDS011;62146;53.232;-1.304;2022-09-25T10:23:51;3.28;;;1.08;;
73816;SDS011;62146;53.232;-1.304;2022-09-25T10:28:48;3.35;;;1.02;;
73816;SDS011;62146;53.232;-1.304;2022-09-25T10:31:16;3.40;;;1.10;;
73816;SDS011;62146;53.232;-1.304;2022-09-25T10:34:04;3.37;;;0.90;;
73816;SDS011;62146;53.232;-1.304;2022-09-25T10:36:50;4.32;;;0.90;;
73816;SDS011;62146;53.232;-1.304;2022-09-25T10:45:05;3.33;;;0.98;;
73816;SDS011;62146;53.232;-1.304;2022-09-25T10:47:54;3.27;;;0.80;;
73816;SDS011;62146;53.232;-1.304;2022-09-25T10:50:39;3.25;;;1.08;;
73816;SDS011;62146;53.232;-1.304;2022-09-25T10:53:10;3.15;;;0.70;;
73816;SDS011;62146;53.232;-1.304;2022-09-25T10:55:54;3.88;;;0.80;;
73816;SDS011;62146;53.232;-1.304;2022-09-25T10:58:29;8.38;;;0.80;;
73816;SDS011;62146;53.232;-1.304;2022-09-25T11:01:01;4.43;;;0.80;;
73816;SDS011;62146;53.232;-1.304;2022-09-25T11:03:33;5.00;;;1.00;;
73816;SDS011;62146;53.232;-1.304;2022-09-25T11:06:06;4.80;;;1.00;;
73816;SDS011;62146;53.232;-1.304;2022-09-25T11:08:36;3.45;;;0.88;;
73816;SDS011;62146;53.232;-1.304;2022-09-25T11:11:06;2.92;;;0.80;;
73816;SDS011;62146;53.232;-1.304;2022-09-25T11:13:42;3.03;;;1.10;;
73816;SDS011;62146;53.232;-1.304;2022-09-25T11:16:20;3.55;;;1.00;;
73816;SDS011;62146;53.232;-1.304;2022-09-25T11:19:20;3.58;;;0.70;;
73816;SDS011;62146;53.232;-1.304;2022-09-25T11:21:56;2.95;;;0.80;;
73816;SDS011;62146;53.232;-1.304;2022-09-25T11:25:01;4.75;;;1.02;;
73816;SDS011;62146;53.232;-1.304;2022-09-25T11:27:59;4.47;;;1.17;;
73816;SDS011;62146;53.232;-1.304;2022-09-25T11:30:54;6.00;;;1.13;;
73816;SDS011;62146;53.232;-1.304;2022-09-25T11:36:18;6.32;;;0.90;;
73816;SDS011;62146;53.232;-1.304;2022-09-25T11:41:45;4.83;;;1.33;;
73816;SDS011;62146;53.232;-1.304;2022-09-25T11:44:20;4.22;;;1.08;;
73816;SDS011;62146;53.232;-1.304;2022-09-25T11:49:37;3.25;;;1.00;;
73816;SDS011;62146;53.232;-1.304;2022-09-25T12:11:47;5.20;;;1.27;;
73816;SDS011;62146;53.232;-1.304;2022-09-25T12:31:29;4.90;;;1.20;;
73816;SDS011;62146;53.232;-1.304;2022-09-25T12:34:07;5.15;;;1.35;;
73816;SDS011;62146;53.232;-1.304;2022-09-25T12:36:55;5.03;;;1.30;;
73816;SDS011;62146;53.232;-1.304;2022-09-25T12:42:15;4.85;;;1.38;;
73816;SDS011;62146;53.232;-1.304;2022-09-25T12:47:38;5.63;;;1.27;;
73816;SDS011;62146;53.232;-1.304;2022-09-25T12:50:47;5.53;;;1.40;;
73816;SDS011;62146;53.232;-1.304;2022-09-25T12:53:31;4.78;;;1.38;;
73816;SDS011;62146;53.232;-1.304;2022-09-25T12:56:01;7.53;;;1.90;;
73816;SDS011;62146;53.232;-1.304;2022-09-25T12:58:44;8.68;;;2.00;;
73816;SDS011;62146;53.232;-1.304;2022-09-25T13:01:21;5.97;;;1.92;;
73816;SDS011;62146;53.232;-1.304;2022-09-25T13:11:51;8.82;;;1.67;;
73816;SDS011;62146;53.232;-1.304;2022-09-25T13:14:37;5.97;;;1.50;;
73816;SDS011;62146;53.232;-1.304;2022-09-25T13:17:11;5.90;;;1.50;;
73816;SDS011;62146;53.232;-1.304;2022-09-25T13:19:38;7.38;;;1.75;;
73816;SDS011;62146;53.232;-1.304;2022-09-25T13:22:06;5.45;;;1.30;;
73816;SDS011;62146;53.232;-1.304;2022-09-25T13:25:02;6.13;;;1.70;;
73816;SDS011;62146;53.232;-1.304;2022-09-25T13:27:39;5.57;;;1.67;;
73816;SDS011;62146;53.232;-1.304;2022-09-25T13:30:18;5.93;;;1.50;;
73816;SDS011;62146;53.232;-1.304;2022-09-25T13:32:55;6.88;;;1.58;;
73816;SDS011;62146;53.232;-1.304;2022-09-25T13:35:29;5.95;;;1.80;;
73816;SDS011;62146;53.232;-1.304;2022-09-25T13:38:14;7.40;;;1.95;;
73816;SDS011;62146;53.232;-1.304;2022-09-25T13:41:10;9.65;;;2.00;;
73816;SDS011;62146;53.232;-1.304;2022-09-25T13:43:38;7.33;;;2.00;;
73816;SDS011;62146;53.232;-1.304;2022-09-25T13:48:49;5.30;;;1.40;;
73816;SDS011;62146;53.232;-1.304;2022-09-25T13:53:49;7.78;;;1.77;;
73816;SDS011;62146;53.232;-1.304;2022-09-25T13:56:22;8.27;;;1.87;;
73816;SDS011;62146;53.232;-1.304;2022-09-25T13:59:00;5.65;;;1.70;;
73816;SDS011;62146;53.232;-1.304;2022-09-25T14:01:36;5.78;;;1.58;;
73816;SDS011;62146;53.232;-1.304;2022-09-25T14:06:42;10.32;;;3.00;;
73816;SDS011;62146;53.232;-1.304;2022-09-25T14:09:14;7.50;;;2.20;;
73816;SDS011;62146;53.232;-1.304;2022-09-25T14:11:49;6.18;;;1.60;;
73816;SDS011;62146;53.232;-1.304;2022-09-25T14:14:25;7.32;;;1.60;;
73816;SDS011;62146;53.232;-1.304;2022-09-25T14:16:55;6.03;;;1.83;;
73816;SDS011;62146;53.232;-1.304;2022-09-25T14:19:25;5.25;;;1.70;;
73816;SDS011;62146;53.232;-1.304;2022-09-25T14:21:55;5.63;;;1.80;;
73816;SDS011;62146;53.232;-1.304;2022-09-25T14:24:25;5.75;;;1.77;;
73816;SDS011;62146;53.232;-1.304;2022-09-25T14:26:57;5.82;;;1.75;;
73816;SDS011;62146;53.232;-1.304;2022-09-25T14:29:29;5.90;;;1.85;;
73816;SDS011;62146;53.232;-1.304;2022-09-25T14:32:19;9.70;;;2.33;;
73816;SDS011;62146;53.232;-1.304;2022-09-25T14:41:12;8.25;;;2.38;;
73816;SDS011;62146;53.232;-1.304;2022-09-25T14:43:51;7.45;;;1.67;;
73816;SDS011;62146;53.232;-1.304;2022-09-25T14:46:27;8.15;;;2.30;;
73816;SDS011;62146;53.232;-1.304;2022-09-25T14:51:28;8.70;;;1.90;;
73816;SDS011;62146;53.232;-1.304;2022-09-25T14:54:06;6.80;;;2.10;;
73816;SDS011;62146;53.232;-1.304;2022-09-25T14:56:34;8.07;;;2.13;;
73816;SDS011;62146;53.232;-1.304;2022-09-25T14:59:07;5.40;;;1.65;;
73816;SDS011;62146;53.232;-1.304;2022-09-25T15:01:45;7.03;;;1.80;;
73816;SDS011;62146;53.232;-1.304;2022-09-25T15:07:15;6.13;;;2.03;;
73816;SDS011;62146;53.232;-1.304;2022-09-25T15:09:44;5.72;;;1.80;;
73816;SDS011;62146;53.232;-1.304;2022-09-25T15:17:46;6.47;;;1.90;;
73816;SDS011;62146;53.232;-1.304;2022-09-25T15:20:15;4.40;;;1.60;;
73816;SDS011;62146;53.232;-1.304;2022-09-25T15:23:27;7.35;;;2.08;;
73816;SDS011;62146;53.232;-1.304;2022-09-25T15:25:43;7.07;;;1.77;;
73816;SDS011;62146;53.232;-1.304;2022-09-25T15:28:19;5.53;;;1.90;;
73816;SDS011;62146;53.232;-1.304;2022-09-25T15:30:57;5.82;;;1.85;;
73816;SDS011;62146;53.232;-1.304;2022-09-25T15:33:32;8.15;;;2.20;;
73816;SDS011;62146;53.232;-1.304;2022-09-25T15:36:23;5.85;;;2.22;;
73816;SDS011;62146;53.232;-1.304;2022-09-25T15:38:53;6.45;;;1.90;;
73816;SDS011;62146;53.232;-1.304;2022-09-25T15:41:22;7.40;;;1.70;;
73816;SDS011;62146;53.232;-1.304;2022-09-25T15:43:49;5.72;;;1.70;;
73816;SDS011;62146;53.232;-1.304;2022-09-25T15:46:26;5.10;;;1.70;;
73816;SDS011;62146;53.232;-1.304;2022-09-25T15:49:01;9.25;;;1.90;;
73816;SDS011;62146;53.232;-1.304;2022-09-25T15:51:30;6.38;;;1.90;;
73816;SDS011;62146;53.232;-1.304;2022-09-25T15:53:59;5.27;;;1.93;;
73816;SDS011;62146;53.232;-1.304;2022-09-25T15:56:29;4.85;;;1.65;;
73816;SDS011;62146;53.232;-1.304;2022-09-25T15:59:03;5.57;;;1.63;;
73816;SDS011;62146;53.232;-1.304;2022-09-25T16:01:39;6.65;;;1.88;;
73816;SDS011;62146;53.232;-1.304;2022-09-25T16:04:26;6.70;;;1.83;;
73816;SDS011;62146;53.232;-1.304;2022-09-25T16:22:50;6.35;;;1.90;;
73816;SDS011;62146;53.232;-1.304;2022-09-25T16:25:22;6.60;;;1.90;;
73816;SDS011;62146;53.232;-1.304;2022-09-25T16:27:58;6.85;;;2.00;;
73816;SDS011;62146;53.232;-1.304;2022-09-25T16:31:01;5.95;;;1.70;;
73816;SDS011;62146;53.232;-1.304;2022-09-25T16:33:34;7.03;;;1.87;;
73816;SDS011;62146;53.232;-1.304;2022-09-25T16:36:08;5.90;;;1.70;;
73816;SDS011;62146;53.232;-1.304;2022-09-25T16:41:38;8.45;;;2.83;;
73816;SDS011;62146;53.232;-1.304;2022-09-25T16:49:20;7.78;;;2.45;;
73816;SDS011;62146;53.232;-1.304;2022-09-25T16:51:46;8.18;;;2.30;;
73816;SDS011;62146;53.232;-1.304;2022-09-25T16:54:15;12.95;;;5.47;;
73816;SDS011;62146;53.232;-1.304;2022-09-25T16:56:44;30.83;;;16.95;;
73816;SDS011;62146;53.232;-1.304;2022-09-25T16:59:23;34.47;;;21.70;;
73816;SDS011;62146;53.232;-1.304;2022-09-25T17:01:51;31.10;;;20.45;;
73816;SDS011;62146;53.232;-1.304;2022-09-25T17:04:22;28.30;;;18.98;;
73816;SDS011;62146;53.232;-1.304;2022-09-25T17:06:51;27.75;;;15.77;;
73816;SDS011;62146;53.232;-1.304;2022-09-25T17:09:19;24.50;;;14.80;;
73816;SDS011;62146;53.232;-1.304;2022-09-25T17:11:46;20.30;;;12.07;;
73816;SDS011;62146;53.232;-1.304;2022-09-25T17:14:24;19.05;;;10.60;;
73816;SDS011;62146;53.232;-1.304;2022-09-25T17:16:52;14.95;;;9.15;;
73816;SDS011;62146;53.232;-1.304;2022-09-25T17:19:19;16.02;;;9.00;;
73816;SDS011;62146;53.232;-1.304;2022-09-25T17:21:47;19.08;;;9.27;;
73816;SDS011;62146;53.232;-1.304;2022-09-25T17:24:17;13.87;;;8.30;;
73816;SDS011;62146;53.232;-1.304;2022-09-25T17:26:45;14.82;;;7.40;;
73816;SDS011;62146;53.232;-1.304;2022-09-25T17:29:12;12.57;;;6.72;;
73816;SDS011;62146;53.232;-1.304;2022-09-25T17:31:39;11.20;;;6.22;;
73816;SDS011;62146;53.232;-1.304;2022-09-25T17:34:11;12.18;;;6.40;;
73816;SDS011;62146;53.232;-1.304;2022-09-25T17:36:42;10.23;;;5.27;;
73816;SDS011;62146;53.232;-1.304;2022-09-25T17:39:08;11.50;;;5.22;;
73816;SDS011;62146;53.232;-1.304;2022-09-25T17:41:36;9.85;;;4.63;;
73816;SDS011;62146;53.232;-1.304;2022-09-25T17:44:03;11.48;;;4.47;;
73816;SDS011;62146;53.232;-1.304;2022-09-25T17:46:30;8.27;;;4.10;;
73816;SDS011;62146;53.232;-1.304;2022-09-25T17:49:01;8.70;;;4.00;;
73816;SDS011;62146;53.232;-1.304;2022-09-25T17:51:29;10.55;;;3.40;;
73816;SDS011;62146;53.232;-1.304;2022-09-25T17:53:56;7.28;;;3.40;;
73816;SDS011;62146;53.232;-1.304;2022-09-25T17:56:24;7.78;;;3.03;;
73816;SDS011;62146;53.232;-1.304;2022-09-25T17:58:55;7.75;;;2.70;;